KLBL/LBL METAR and TAF weather

Enter ICAO airport designator
Station Type Date Time Source
KLBL METAR 2021/10/24 19:56 UTC NOAA

KLBL 241956Z AUTO 35012KT 10SM CLR 23/03 A2985 RMK AO2 SLP087 T02330033


Station Type Date Time Source
KLBL Decoded METAR 2021/10/24 19:56 UTC NOAA

Liberal, Liberal Municipal Airport, KS, United States (KLBL) 37-03N 100-58W
Oct 24, 2021 - 03:56 PM EDT / 2021.10.24 1956 UTC
Wind: from the N (350 degrees) at 14 MPH (12 KT):0
Visibility: 10 mile(s):0
Sky conditions: clear
Temperature: 73.9 F (23.3 C)
Dew Point: 37.9 F (3.3 C)
Relative Humidity: 27%
Pressure (altimeter): 29.85 in. Hg (1010 hPa)
ob: KLBL 241956Z AUTO 35012KT 10SM CLR 23/03 A2985 RMK AO2 SLP087 T02330033
cycle: 20

Station Type Date Time Source
KLBL TAF 2021/10/24 18:21 UTC NOAA

TAF KLBL 241720Z 2418/2518 34014G20KT P6SM SKC
FM250000 VRB05KT P6SM SKC

Example: see airport list